sensor_id;sensor_type;location;lat;lon;timestamp;P1;durP1;ratioP1;P2;durP2;ratioP2
53875;SDS011;39789;53.216;5.624;2023-06-14T00:01:20;12.43;;;3.40;;
53875;SDS011;39789;53.216;5.624;2023-06-14T00:03:47;9.27;;;2.70;;
53875;SDS011;39789;53.216;5.624;2023-06-14T00:06:13;15.15;;;3.00;;
53875;SDS011;39789;53.216;5.624;2023-06-14T00:08:39;11.32;;;3.30;;
53875;SDS011;39789;53.216;5.624;2023-06-14T00:11:05;13.55;;;2.80;;
53875;SDS011;39789;53.216;5.624;2023-06-14T00:13:31;19.30;;;3.40;;
53875;SDS011;39789;53.216;5.624;2023-06-14T00:15:58;15.30;;;3.38;;
53875;SDS011;39789;53.216;5.624;2023-06-14T00:18:23;21.75;;;2.95;;
53875;SDS011;39789;53.216;5.624;2023-06-14T00:20:50;12.27;;;2.80;;
53875;SDS011;39789;53.216;5.624;2023-06-14T00:23:17;7.88;;;2.95;;
53875;SDS011;39789;53.216;5.624;2023-06-14T00:25:42;10.52;;;2.88;;
53875;SDS011;39789;53.216;5.624;2023-06-14T00:28:08;11.60;;;3.08;;
53875;SDS011;39789;53.216;5.624;2023-06-14T00:30:34;17.33;;;2.80;;
53875;SDS011;39789;53.216;5.624;2023-06-14T00:32:59;5.15;;;2.65;;
53875;SDS011;39789;53.216;5.624;2023-06-14T00:35:25;5.85;;;2.50;;
53875;SDS011;39789;53.216;5.624;2023-06-14T00:37:51;7.72;;;2.83;;
53875;SDS011;39789;53.216;5.624;2023-06-14T00:40:16;11.00;;;2.92;;
53875;SDS011;39789;53.216;5.624;2023-06-14T00:42:42;5.00;;;2.72;;
53875;SDS011;39789;53.216;5.624;2023-06-14T00:45:07;14.02;;;3.22;;
53875;SDS011;39789;53.216;5.624;2023-06-14T00:47:34;9.73;;;3.00;;
53875;SDS011;39789;53.216;5.624;2023-06-14T00:50:02;9.55;;;3.03;;
53875;SDS011;39789;53.216;5.624;2023-06-14T00:52:31;8.18;;;2.53;;
53875;SDS011;39789;53.216;5.624;2023-06-14T00:54:57;6.53;;;2.22;;
53875;SDS011;39789;53.216;5.624;2023-06-14T00:57:23;15.57;;;2.80;;
53875;SDS011;39789;53.216;5.624;2023-06-14T00:59:49;7.20;;;2.38;;
53875;SDS011;39789;53.216;5.624;2023-06-14T01:02:15;13.32;;;2.97;;
53875;SDS011;39789;53.216;5.624;2023-06-14T01:04:43;10.32;;;2.70;;
53875;SDS011;39789;53.216;5.624;2023-06-14T01:07:33;8.85;;;2.95;;
53875;SDS011;39789;53.216;5.624;2023-06-14T01:12:31;12.20;;;2.38;;
53875;SDS011;39789;53.216;5.624;2023-06-14T01:15:06;9.02;;;2.63;;
53875;SDS011;39789;53.216;5.624;2023-06-14T01:17:33;12.90;;;2.75;;
53875;SDS011;39789;53.216;5.624;2023-06-14T01:20:02;12.85;;;2.60;;
53875;SDS011;39789;53.216;5.624;2023-06-14T01:22:31;12.90;;;2.83;;
53875;SDS011;39789;53.216;5.624;2023-06-14T01:24:57;9.63;;;2.65;;
53875;SDS011;39789;53.216;5.624;2023-06-14T01:27:23;6.75;;;2.28;;
53875;SDS011;39789;53.216;5.624;2023-06-14T01:29:53;7.80;;;2.70;;
53875;SDS011;39789;53.216;5.624;2023-06-14T01:32:22;8.80;;;2.47;;
53875;SDS011;39789;53.216;5.624;2023-06-14T01:34:49;8.23;;;2.60;;
53875;SDS011;39789;53.216;5.624;2023-06-14T01:37:15;5.78;;;2.20;;
53875;SDS011;39789;53.216;5.624;2023-06-14T01:39:42;8.80;;;3.22;;
53875;SDS011;39789;53.216;5.624;2023-06-14T01:42:08;14.52;;;2.97;;
53875;SDS011;39789;53.216;5.624;2023-06-14T01:44:36;4.90;;;2.53;;
53875;SDS011;39789;53.216;5.624;2023-06-14T01:47:02;9.60;;;2.85;;
53875;SDS011;39789;53.216;5.624;2023-06-14T01:49:28;5.63;;;2.80;;
53875;SDS011;39789;53.216;5.624;2023-06-14T01:51:53;6.80;;;2.25;;
53875;SDS011;39789;53.216;5.624;2023-06-14T01:54:19;6.95;;;2.55;;
53875;SDS011;39789;53.216;5.624;2023-06-14T01:56:44;6.93;;;3.10;;
53875;SDS011;39789;53.216;5.624;2023-06-14T01:59:10;8.80;;;2.70;;
53875;SDS011;39789;53.216;5.624;2023-06-14T02:01:35;11.13;;;2.90;;
53875;SDS011;39789;53.216;5.624;2023-06-14T02:04:01;4.65;;;2.28;;
53875;SDS011;39789;53.216;5.624;2023-06-14T02:06:27;7.75;;;2.50;;
53875;SDS011;39789;53.216;5.624;2023-06-14T02:08:53;8.07;;;2.58;;
53875;SDS011;39789;53.216;5.624;2023-06-14T02:11:18;9.98;;;2.55;;
53875;SDS011;39789;53.216;5.624;2023-06-14T02:13:44;12.02;;;2.75;;
53875;SDS011;39789;53.216;5.624;2023-06-14T02:16:10;11.27;;;2.70;;
53875;SDS011;39789;53.216;5.624;2023-06-14T02:18:36;11.88;;;2.63;;
53875;SDS011;39789;53.216;5.624;2023-06-14T02:21:01;7.97;;;2.67;;
53875;SDS011;39789;53.216;5.624;2023-06-14T02:23:27;6.00;;;2.33;;
53875;SDS011;39789;53.216;5.624;2023-06-14T02:25:52;9.75;;;3.58;;
53875;SDS011;39789;53.216;5.624;2023-06-14T02:28:18;5.85;;;3.10;;
53875;SDS011;39789;53.216;5.624;2023-06-14T02:30:44;13.40;;;2.83;;
53875;SDS011;39789;53.216;5.624;2023-06-14T02:33:09;14.00;;;2.83;;
53875;SDS011;39789;53.216;5.624;2023-06-14T02:35:37;10.25;;;2.40;;
53875;SDS011;39789;53.216;5.624;2023-06-14T02:38:03;4.72;;;2.60;;
53875;SDS011;39789;53.216;5.624;2023-06-14T02:40:29;8.75;;;2.75;;
53875;SDS011;39789;53.216;5.624;2023-06-14T02:42:54;5.80;;;2.60;;
53875;SDS011;39789;53.216;5.624;2023-06-14T02:45:20;13.95;;;2.75;;
53875;SDS011;39789;53.216;5.624;2023-06-14T02:47:46;8.82;;;2.55;;
53875;SDS011;39789;53.216;5.624;2023-06-14T02:50:11;9.93;;;2.42;;
53875;SDS011;39789;53.216;5.624;2023-06-14T02:52:37;10.60;;;2.80;;
53875;SDS011;39789;53.216;5.624;2023-06-14T02:55:03;6.93;;;2.45;;
53875;SDS011;39789;53.216;5.624;2023-06-14T02:57:29;11.45;;;3.28;;
53875;SDS011;39789;53.216;5.624;2023-06-14T02:59:55;11.07;;;3.00;;
53875;SDS011;39789;53.216;5.624;2023-06-14T03:02:20;10.45;;;2.65;;
53875;SDS011;39789;53.216;5.624;2023-06-14T03:04:46;11.98;;;2.60;;
53875;SDS011;39789;53.216;5.624;2023-06-14T03:07:11;7.72;;;2.72;;
53875;SDS011;39789;53.216;5.624;2023-06-14T03:09:38;7.45;;;2.88;;
53875;SDS011;39789;53.216;5.624;2023-06-14T03:12:04;14.15;;;3.25;;
53875;SDS011;39789;53.216;5.624;2023-06-14T03:14:35;6.32;;;2.80;;
53875;SDS011;39789;53.216;5.624;2023-06-14T03:17:00;5.10;;;2.60;;
53875;SDS011;39789;53.216;5.624;2023-06-14T03:19:26;9.45;;;2.72;;
53875;SDS011;39789;53.216;5.624;2023-06-14T03:21:52;10.00;;;2.80;;
53875;SDS011;39789;53.216;5.624;2023-06-14T03:24:18;12.30;;;3.00;;
53875;SDS011;39789;53.216;5.624;2023-06-14T03:26:45;7.03;;;2.58;;
53875;SDS011;39789;53.216;5.624;2023-06-14T03:29:11;7.85;;;3.08;;
53875;SDS011;39789;53.216;5.624;2023-06-14T03:31:41;10.00;;;2.90;;
53875;SDS011;39789;53.216;5.624;2023-06-14T03:34:22;6.82;;;2.95;;
53875;SDS011;39789;53.216;5.624;2023-06-14T03:36:47;7.45;;;2.92;;
53875;SDS011;39789;53.216;5.624;2023-06-14T03:39:13;8.52;;;3.42;;
53875;SDS011;39789;53.216;5.624;2023-06-14T03:41:38;5.95;;;3.22;;
53875;SDS011;39789;53.216;5.624;2023-06-14T03:44:04;16.55;;;4.72;;
53875;SDS011;39789;53.216;5.624;2023-06-14T03:46:29;13.25;;;3.05;;
53875;SDS011;39789;53.216;5.624;2023-06-14T03:48:55;10.82;;;3.40;;
53875;SDS011;39789;53.216;5.624;2023-06-14T03:51:20;9.73;;;3.22;;
53875;SDS011;39789;53.216;5.624;2023-06-14T03:53:47;11.07;;;3.35;;
53875;SDS011;39789;53.216;5.624;2023-06-14T03:56:13;15.50;;;3.80;;
53875;SDS011;39789;53.216;5.624;2023-06-14T03:58:38;17.27;;;3.83;;
53875;SDS011;39789;53.216;5.624;2023-06-14T04:01:04;10.05;;;3.28;;
53875;SDS011;39789;53.216;5.624;2023-06-14T04:03:32;4.35;;;2.95;;
53875;SDS011;39789;53.216;5.624;2023-06-14T04:05:58;8.05;;;3.03;;
53875;SDS011;39789;53.216;5.624;2023-06-14T04:08:25;8.27;;;3.08;;
53875;SDS011;39789;53.216;5.624;2023-06-14T04:10:50;7.43;;;3.30;;
53875;SDS011;39789;53.216;5.624;2023-06-14T04:13:16;8.15;;;3.28;;
53875;SDS011;39789;53.216;5.624;2023-06-14T04:15:42;7.03;;;2.97;;
53875;SDS011;39789;53.216;5.624;2023-06-14T04:18:08;9.25;;;3.03;;
53875;SDS011;39789;53.216;5.624;2023-06-14T04:20:34;4.63;;;3.28;;
53875;SDS011;39789;53.216;5.624;2023-06-14T04:23:11;6.72;;;3.30;;
53875;SDS011;39789;53.216;5.624;2023-06-14T04:25:37;7.10;;;3.40;;
53875;SDS011;39789;53.216;5.624;2023-06-14T04:28:03;7.68;;;3.10;;
53875;SDS011;39789;53.216;5.624;2023-06-14T04:30:29;6.60;;;3.08;;
53875;SDS011;39789;53.216;5.624;2023-06-14T04:32:56;6.80;;;2.80;;
53875;SDS011;39789;53.216;5.624;2023-06-14T04:35:22;10.00;;;3.83;;
53875;SDS011;39789;53.216;5.624;2023-06-14T04:37:54;8.35;;;3.22;;
53875;SDS011;39789;53.216;5.624;2023-06-14T04:40:20;4.28;;;2.95;;
53875;SDS011;39789;53.216;5.624;2023-06-14T04:42:45;16.27;;;3.65;;
53875;SDS011;39789;53.216;5.624;2023-06-14T04:45:11;11.82;;;3.80;;
53875;SDS011;39789;53.216;5.624;2023-06-14T04:47:37;17.45;;;3.53;;
53875;SDS011;39789;53.216;5.624;2023-06-14T04:50:03;7.93;;;3.75;;
53875;SDS011;39789;53.216;5.624;2023-06-14T04:52:29;5.80;;;3.20;;
53875;SDS011;39789;53.216;5.624;2023-06-14T04:54:56;13.40;;;3.30;;
53875;SDS011;39789;53.216;5.624;2023-06-14T04:57:22;5.85;;;3.35;;
53875;SDS011;39789;53.216;5.624;2023-06-14T04:59:50;8.73;;;3.45;;
53875;SDS011;39789;53.216;5.624;2023-06-14T05:02:20;6.82;;;4.00;;
53875;SDS011;39789;53.216;5.624;2023-06-14T05:04:49;11.05;;;4.00;;
53875;SDS011;39789;53.216;5.624;2023-06-14T05:07:15;9.65;;;3.38;;
53875;SDS011;39789;53.216;5.624;2023-06-14T05:09:41;12.68;;;3.60;;
53875;SDS011;39789;53.216;5.624;2023-06-14T05:12:06;7.95;;;3.30;;
53875;SDS011;39789;53.216;5.624;2023-06-14T05:14:35;5.80;;;3.63;;
53875;SDS011;39789;53.216;5.624;2023-06-14T05:17:04;14.82;;;4.05;;
53875;SDS011;39789;53.216;5.624;2023-06-14T05:19:30;6.85;;;3.60;;
53875;SDS011;39789;53.216;5.624;2023-06-14T05:21:56;12.73;;;3.42;;
53875;SDS011;39789;53.216;5.624;2023-06-14T05:24:22;5.15;;;3.13;;
53875;SDS011;39789;53.216;5.624;2023-06-14T05:26:47;6.60;;;3.08;;
53875;SDS011;39789;53.216;5.624;2023-06-14T05:29:13;4.47;;;3.10;;
53875;SDS011;39789;53.216;5.624;2023-06-14T05:31:39;8.88;;;3.40;;
53875;SDS011;39789;53.216;5.624;2023-06-14T05:34:05;16.83;;;3.97;;
53875;SDS011;39789;53.216;5.624;2023-06-14T05:36:30;7.75;;;3.40;;
53875;SDS011;39789;53.216;5.624;2023-06-14T05:38:56;10.40;;;3.97;;
53875;SDS011;39789;53.216;5.624;2023-06-14T05:41:27;10.05;;;3.47;;
53875;SDS011;39789;53.216;5.624;2023-06-14T05:43:54;10.57;;;4.13;;
53875;SDS011;39789;53.216;5.624;2023-06-14T05:46:20;14.55;;;3.83;;
53875;SDS011;39789;53.216;5.624;2023-06-14T05:48:49;7.90;;;3.35;;
53875;SDS011;39789;53.216;5.624;2023-06-14T05:51:15;12.93;;;4.38;;
53875;SDS011;39789;53.216;5.624;2023-06-14T05:53:44;8.68;;;3.65;;
53875;SDS011;39789;53.216;5.624;2023-06-14T05:56:11;7.07;;;3.55;;
53875;SDS011;39789;53.216;5.624;2023-06-14T05:58:37;7.10;;;3.42;;
53875;SDS011;39789;53.216;5.624;2023-06-14T06:01:02;13.68;;;4.15;;
53875;SDS011;39789;53.216;5.624;2023-06-14T06:03:28;15.43;;;4.07;;
53875;SDS011;39789;53.216;5.624;2023-06-14T06:05:54;9.73;;;3.90;;
53875;SDS011;39789;53.216;5.624;2023-06-14T06:08:20;8.95;;;3.53;;
53875;SDS011;39789;53.216;5.624;2023-06-14T06:10:46;6.38;;;3.55;;
53875;SDS011;39789;53.216;5.624;2023-06-14T06:13:11;23.58;;;4.82;;
53875;SDS011;39789;53.216;5.624;2023-06-14T06:15:37;5.65;;;3.63;;
53875;SDS011;39789;53.216;5.624;2023-06-14T06:18:02;16.23;;;3.78;;
53875;SDS011;39789;53.216;5.624;2023-06-14T06:20:29;10.13;;;3.80;;
53875;SDS011;39789;53.216;5.624;2023-06-14T06:22:57;9.32;;;4.07;;
53875;SDS011;39789;53.216;5.624;2023-06-14T06:25:26;6.93;;;3.63;;
53875;SDS011;39789;53.216;5.624;2023-06-14T06:27:52;7.32;;;3.50;;
53875;SDS011;39789;53.216;5.624;2023-06-14T06:30:19;8.48;;;3.83;;
53875;SDS011;39789;53.216;5.624;2023-06-14T06:32:45;8.90;;;3.30;;
53875;SDS011;39789;53.216;5.624;2023-06-14T06:35:11;5.82;;;3.58;;
53875;SDS011;39789;53.216;5.624;2023-06-14T06:37:38;11.05;;;4.13;;
53875;SDS011;39789;53.216;5.624;2023-06-14T06:40:04;6.97;;;3.47;;
53875;SDS011;39789;53.216;5.624;2023-06-14T06:42:32;9.15;;;4.20;;
53875;SDS011;39789;53.216;5.624;2023-06-14T06:45:01;7.20;;;3.40;;
53875;SDS011;39789;53.216;5.624;2023-06-14T06:47:26;5.20;;;3.13;;
53875;SDS011;39789;53.216;5.624;2023-06-14T06:49:52;11.18;;;3.80;;
53875;SDS011;39789;53.216;5.624;2023-06-14T06:52:18;6.85;;;3.17;;
53875;SDS011;39789;53.216;5.624;2023-06-14T06:54:43;5.68;;;3.33;;
53875;SDS011;39789;53.216;5.624;2023-06-14T06:57:09;5.15;;;3.13;;
53875;SDS011;39789;53.216;5.624;2023-06-14T06:59:36;5.15;;;3.55;;
53875;SDS011;39789;53.216;5.624;2023-06-14T07:02:01;10.63;;;3.60;;
53875;SDS011;39789;53.216;5.624;2023-06-14T07:04:27;8.10;;;2.72;;
53875;SDS011;39789;53.216;5.624;2023-06-14T07:06:52;6.82;;;2.95;;
53875;SDS011;39789;53.216;5.624;2023-06-14T07:09:18;6.10;;;3.80;;
53875;SDS011;39789;53.216;5.624;2023-06-14T07:11:47;8.40;;;2.80;;
53875;SDS011;39789;53.216;5.624;2023-06-14T07:14:13;3.50;;;2.58;;
53875;SDS011;39789;53.216;5.624;2023-06-14T07:16:39;6.05;;;3.20;;
53875;SDS011;39789;53.216;5.624;2023-06-14T07:19:05;5.22;;;2.53;;
53875;SDS011;39789;53.216;5.624;2023-06-14T07:21:31;6.43;;;3.22;;
53875;SDS011;39789;53.216;5.624;2023-06-14T07:23:57;5.38;;;2.45;;
53875;SDS011;39789;53.216;5.624;2023-06-14T07:26:22;4.40;;;2.40;;
53875;SDS011;39789;53.216;5.624;2023-06-14T07:28:48;6.18;;;2.55;;
53875;SDS011;39789;53.216;5.624;2023-06-14T07:31:15;5.70;;;2.63;;
53875;SDS011;39789;53.216;5.624;2023-06-14T07:33:41;6.32;;;2.45;;
53875;SDS011;39789;53.216;5.624;2023-06-14T07:36:10;6.70;;;2.88;;
53875;SDS011;39789;53.216;5.624;2023-06-14T07:38:35;5.20;;;2.63;;
53875;SDS011;39789;53.216;5.624;2023-06-14T07:41:01;6.45;;;2.60;;
53875;SDS011;39789;53.216;5.624;2023-06-14T07:43:27;7.85;;;2.67;;
53875;SDS011;39789;53.216;5.624;2023-06-14T07:45:53;2.70;;;2.20;;
53875;SDS011;39789;53.216;5.624;2023-06-14T07:48:18;4.25;;;2.45;;
53875;SDS011;39789;53.216;5.624;2023-06-14T07:50:44;2.30;;;2.10;;
53875;SDS011;39789;53.216;5.624;2023-06-14T07:53:10;3.28;;;2.33;;
53875;SDS011;39789;53.216;5.624;2023-06-14T07:55:35;2.85;;;2.08;;
53875;SDS011;39789;53.216;5.624;2023-06-14T07:58:02;5.65;;;2.30;;
53875;SDS011;39789;53.216;5.624;2023-06-14T08:00:28;4.95;;;2.53;;
53875;SDS011;39789;53.216;5.624;2023-06-14T08:02:54;3.88;;;2.00;;
53875;SDS011;39789;53.216;5.624;2023-06-14T08:05:24;3.28;;;2.40;;
53875;SDS011;39789;53.216;5.624;2023-06-14T08:07:53;3.65;;;2.17;;
53875;SDS011;39789;53.216;5.624;2023-06-14T08:10:19;4.93;;;2.22;;
53875;SDS011;39789;53.216;5.624;2023-06-14T08:12:45;6.00;;;2.58;;
53875;SDS011;39789;53.216;5.624;2023-06-14T08:15:11;4.88;;;2.13;;
53875;SDS011;39789;53.216;5.624;2023-06-14T08:17:37;7.35;;;2.40;;
53875;SDS011;39789;53.216;5.624;2023-06-14T08:20:03;2.42;;;1.95;;
53875;SDS011;39789;53.216;5.624;2023-06-14T08:22:32;7.78;;;2.30;;
53875;SDS011;39789;53.216;5.624;2023-06-14T08:24:59;2.88;;;2.20;;
53875;SDS011;39789;53.216;5.624;2023-06-14T08:27:26;3.58;;;2.15;;
53875;SDS011;39789;53.216;5.624;2023-06-14T08:29:51;6.65;;;2.10;;
53875;SDS011;39789;53.216;5.624;2023-06-14T08:32:17;5.93;;;2.20;;
53875;SDS011;39789;53.216;5.624;2023-06-14T08:34:43;7.65;;;2.30;;
53875;SDS011;39789;53.216;5.624;2023-06-14T08:37:08;2.67;;;2.10;;
53875;SDS011;39789;53.216;5.624;2023-06-14T08:39:36;2.50;;;2.30;;
53875;SDS011;39789;53.216;5.624;2023-06-14T08:42:02;3.08;;;2.35;;
53875;SDS011;39789;53.216;5.624;2023-06-14T08:44:31;3.50;;;2.22;;
53875;SDS011;39789;53.216;5.624;2023-06-14T08:46:59;4.78;;;2.55;;
53875;SDS011;39789;53.216;5.624;2023-06-14T08:49:25;4.38;;;2.25;;
53875;SDS011;39789;53.216;5.624;2023-06-14T08:51:58;7.85;;;2.60;;
53875;SDS011;39789;53.216;5.624;2023-06-14T08:54:25;6.15;;;3.50;;
53875;SDS011;39789;53.216;5.624;2023-06-14T08:56:54;4.97;;;2.30;;
53875;SDS011;39789;53.216;5.624;2023-06-14T08:59:23;5.55;;;2.40;;
53875;SDS011;39789;53.216;5.624;2023-06-14T09:01:51;4.53;;;2.60;;
53875;SDS011;39789;53.216;5.624;2023-06-14T09:04:17;5.75;;;2.70;;
53875;SDS011;39789;53.216;5.624;2023-06-14T09:06:44;4.63;;;2.70;;
53875;SDS011;39789;53.216;5.624;2023-06-14T09:09:10;9.15;;;2.40;;
53875;SDS011;39789;53.216;5.624;2023-06-14T09:11:37;4.90;;;2.58;;
53875;SDS011;39789;53.216;5.624;2023-06-14T09:14:03;3.28;;;2.47;;
53875;SDS011;39789;53.216;5.624;2023-06-14T09:16:31;5.30;;;2.47;;
53875;SDS011;39789;53.216;5.624;2023-06-14T09:18:58;12.18;;;2.60;;
53875;SDS011;39789;53.216;5.624;2023-06-14T09:21:25;4.80;;;2.83;;
53875;SDS011;39789;53.216;5.624;2023-06-14T09:23:51;5.07;;;2.42;;
53875;SDS011;39789;53.216;5.624;2023-06-14T09:26:18;4.75;;;2.60;;
53875;SDS011;39789;53.216;5.624;2023-06-14T09:28:45;7.38;;;2.83;;
53875;SDS011;39789;53.216;5.624;2023-06-14T09:31:16;6.40;;;2.33;;
53875;SDS011;39789;53.216;5.624;2023-06-14T09:33:52;4.60;;;2.58;;
53875;SDS011;39789;53.216;5.624;2023-06-14T09:36:24;5.10;;;2.67;;
53875;SDS011;39789;53.216;5.624;2023-06-14T09:38:55;9.18;;;2.47;;
53875;SDS011;39789;53.216;5.624;2023-06-14T09:41:35;5.95;;;2.53;;
53875;SDS011;39789;53.216;5.624;2023-06-14T09:44:08;6.13;;;2.88;;
53875;SDS011;39789;53.216;5.624;2023-06-14T09:46:36;6.28;;;2.30;;
53875;SDS011;39789;53.216;5.624;2023-06-14T09:49:02;4.13;;;2.78;;
53875;SDS011;39789;53.216;5.624;2023-06-14T09:51:29;4.15;;;2.20;;
53875;SDS011;39789;53.216;5.624;2023-06-14T09:53:58;3.38;;;2.20;;
53875;SDS011;39789;53.216;5.624;2023-06-14T09:56:32;5.03;;;2.33;;
53875;SDS011;39789;53.216;5.624;2023-06-14T09:59:02;3.75;;;2.00;;
53875;SDS011;39789;53.216;5.624;2023-06-14T10:01:34;2.97;;;2.40;;
53875;SDS011;39789;53.216;5.624;2023-06-14T10:04:05;4.45;;;2.47;;
53875;SDS011;39789;53.216;5.624;2023-06-14T10:06:32;3.30;;;2.25;;
53875;SDS011;39789;53.216;5.624;2023-06-14T10:09:05;3.70;;;2.47;;
53875;SDS011;39789;53.216;5.624;2023-06-14T10:11:34;6.13;;;2.80;;
53875;SDS011;39789;53.216;5.624;2023-06-14T10:14:01;8.70;;;2.70;;
53875;SDS011;39789;53.216;5.624;2023-06-14T10:16:58;2.83;;;1.85;;
53875;SDS011;39789;53.216;5.624;2023-06-14T10:19:32;3.25;;;2.13;;
53875;SDS011;39789;53.216;5.624;2023-06-14T10:22:10;7.10;;;2.47;;
53875;SDS011;39789;53.216;5.624;2023-06-14T10:24:42;4.00;;;2.80;;
53875;SDS011;39789;53.216;5.624;2023-06-14T10:27:09;3.90;;;2.13;;
53875;SDS011;39789;53.216;5.624;2023-06-14T10:30:01;6.00;;;2.30;;
53875;SDS011;39789;53.216;5.624;2023-06-14T10:32:26;11.05;;;2.42;;
53875;SDS011;39789;53.216;5.624;2023-06-14T10:37:27;4.57;;;2.40;;
53875;SDS011;39789;53.216;5.624;2023-06-14T10:39:52;6.57;;;2.30;;
53875;SDS011;39789;53.216;5.624;2023-06-14T10:42:19;8.95;;;2.25;;
53875;SDS011;39789;53.216;5.624;2023-06-14T10:47:32;7.20;;;2.25;;
53875;SDS011;39789;53.216;5.624;2023-06-14T10:50:10;7.75;;;2.40;;
53875;SDS011;39789;53.216;5.624;2023-06-14T10:52:43;4.07;;;2.35;;
53875;SDS011;39789;53.216;5.624;2023-06-14T10:57:36;4.78;;;2.22;;
53875;SDS011;39789;53.216;5.624;2023-06-14T11:00:06;6.28;;;2.90;;
53875;SDS011;39789;53.216;5.624;2023-06-14T11:05:26;4.82;;;2.28;;
53875;SDS011;39789;53.216;5.624;2023-06-14T11:10:43;4.00;;;2.45;;
53875;SDS011;39789;53.216;5.624;2023-06-14T11:13:12;6.45;;;2.53;;
53875;SDS011;39789;53.216;5.624;2023-06-14T11:15:45;4.97;;;2.20;;
53875;SDS011;39789;53.216;5.624;2023-06-14T11:18:14;5.80;;;2.60;;
53875;SDS011;39789;53.216;5.624;2023-06-14T11:20:41;5.00;;;2.17;;
53875;SDS011;39789;53.216;5.624;2023-06-14T11:23:07;7.95;;;2.72;;
53875;SDS011;39789;53.216;5.624;2023-06-14T11:25:33;8.27;;;2.60;;
53875;SDS011;39789;53.216;5.624;2023-06-14T11:27:58;2.33;;;1.95;;
53875;SDS011;39789;53.216;5.624;2023-06-14T11:30:25;8.10;;;2.40;;
53875;SDS011;39789;53.216;5.624;2023-06-14T11:32:51;7.85;;;2.60;;
53875;SDS011;39789;53.216;5.624;2023-06-14T11:35:18;6.78;;;2.33;;
53875;SDS011;39789;53.216;5.624;2023-06-14T11:37:48;4.10;;;2.60;;
53875;SDS011;39789;53.216;5.624;2023-06-14T11:40:14;5.00;;;2.20;;
53875;SDS011;39789;53.216;5.624;2023-06-14T11:42:41;4.38;;;2.38;;
53875;SDS011;39789;53.216;5.624;2023-06-14T11:45:07;4.63;;;2.22;;
53875;SDS011;39789;53.216;5.624;2023-06-14T11:47:34;5.60;;;2.70;;
53875;SDS011;39789;53.216;5.624;2023-06-14T11:50:01;6.25;;;2.50;;
53875;SDS011;39789;53.216;5.624;2023-06-14T11:52:27;6.10;;;4.13;;
53875;SDS011;39789;53.216;5.624;2023-06-14T11:54:53;12.48;;;3.38;;
53875;SDS011;39789;53.216;5.624;2023-06-14T11:57:19;3.60;;;2.50;;
53875;SDS011;39789;53.216;5.624;2023-06-14T11:59:45;3.70;;;2.20;;
53875;SDS011;39789;53.216;5.624;2023-06-14T12:02:15;4.00;;;2.03;;
53875;SDS011;39789;53.216;5.624;2023-06-14T12:04:42;6.63;;;2.22;;
53875;SDS011;39789;53.216;5.624;2023-06-14T12:07:17;2.70;;;2.13;;
53875;SDS011;39789;53.216;5.624;2023-06-14T12:12:23;4.10;;;2.10;;
53875;SDS011;39789;53.216;5.624;2023-06-14T12:14:53;4.53;;;2.53;;
53875;SDS011;39789;53.216;5.624;2023-06-14T12:17:21;2.83;;;2.13;;
53875;SDS011;39789;53.216;5.624;2023-06-14T12:19:48;7.22;;;2.42;;
53875;SDS011;39789;53.216;5.624;2023-06-14T12:22:15;6.28;;;2.47;;
53875;SDS011;39789;53.216;5.624;2023-06-14T12:24:45;15.63;;;4.50;;
53875;SDS011;39789;53.216;5.624;2023-06-14T12:27:11;5.95;;;3.22;;
53875;SDS011;39789;53.216;5.624;2023-06-14T12:29:41;16.20;;;3.83;;
53875;SDS011;39789;53.216;5.624;2023-06-14T12:32:10;10.13;;;2.67;;
53875;SDS011;39789;53.216;5.624;2023-06-14T12:34:36;8.98;;;2.88;;
53875;SDS011;39789;53.216;5.624;2023-06-14T12:37:02;5.38;;;2.33;;
53875;SDS011;39789;53.216;5.624;2023-06-14T12:39:31;5.88;;;2.40;;
53875;SDS011;39789;53.216;5.624;2023-06-14T12:41:57;3.70;;;1.83;;
53875;SDS011;39789;53.216;5.624;2023-06-14T12:44:23;3.20;;;1.98;;
53875;SDS011;39789;53.216;5.624;2023-06-14T12:46:48;2.75;;;2.10;;
53875;SDS011;39789;53.216;5.624;2023-06-14T12:49:16;6.13;;;2.75;;
53875;SDS011;39789;53.216;5.624;2023-06-14T12:51:42;6.43;;;3.03;;
53875;SDS011;39789;53.216;5.624;2023-06-14T12:54:08;7.60;;;3.25;;
53875;SDS011;39789;53.216;5.624;2023-06-14T12:56:33;6.35;;;3.10;;
53875;SDS011;39789;53.216;5.624;2023-06-14T12:58:59;10.32;;;3.20;;
53875;SDS011;39789;53.216;5.624;2023-06-14T13:01:25;6.43;;;3.08;;
53875;SDS011;39789;53.216;5.624;2023-06-14T13:03:51;5.22;;;2.90;;
53875;SDS011;39789;53.216;5.624;2023-06-14T13:06:20;9.23;;;2.95;;
53875;SDS011;39789;53.216;5.624;2023-06-14T13:08:46;8.18;;;3.65;;
53875;SDS011;39789;53.216;5.624;2023-06-14T13:11:12;7.82;;;3.00;;
53875;SDS011;39789;53.216;5.624;2023-06-14T13:13:37;5.32;;;3.50;;
53875;SDS011;39789;53.216;5.624;2023-06-14T13:16:03;4.53;;;3.33;;
53875;SDS011;39789;53.216;5.624;2023-06-14T13:18:28;8.65;;;3.45;;
53875;SDS011;39789;53.216;5.624;2023-06-14T13:20:54;6.95;;;3.70;;
53875;SDS011;39789;53.216;5.624;2023-06-14T13:23:20;13.00;;;3.92;;
53875;SDS011;39789;53.216;5.624;2023-06-14T13:25:45;9.02;;;3.90;;
53875;SDS011;39789;53.216;5.624;2023-06-14T13:28:11;7.38;;;3.67;;
53875;SDS011;39789;53.216;5.624;2023-06-14T13:30:37;9.55;;;3.38;;
53875;SDS011;39789;53.216;5.624;2023-06-14T13:33:03;4.60;;;2.90;;
53875;SDS011;39789;53.216;5.624;2023-06-14T13:35:28;14.27;;;3.63;;
53875;SDS011;39789;53.216;5.624;2023-06-14T13:37:54;7.95;;;2.97;;
53875;SDS011;39789;53.216;5.624;2023-06-14T13:40:19;7.78;;;3.38;;
53875;SDS011;39789;53.216;5.624;2023-06-14T13:42:46;7.20;;;3.05;;
53875;SDS011;39789;53.216;5.624;2023-06-14T13:45:12;7.97;;;3.72;;
53875;SDS011;39789;53.216;5.624;2023-06-14T13:47:37;4.60;;;2.90;;
53875;SDS011;39789;53.216;5.624;2023-06-14T13:50:03;8.98;;;3.38;;
53875;SDS011;39789;53.216;5.624;2023-06-14T13:52:29;8.73;;;3.72;;
53875;SDS011;39789;53.216;5.624;2023-06-14T13:54:55;7.00;;;3.10;;
53875;SDS011;39789;53.216;5.624;2023-06-14T13:57:21;14.50;;;3.75;;
53875;SDS011;39789;53.216;5.624;2023-06-14T13:59:46;7.38;;;3.05;;
53875;SDS011;39789;53.216;5.624;2023-06-14T14:02:13;8.95;;;3.22;;
53875;SDS011;39789;53.216;5.624;2023-06-14T14:04:39;7.00;;;2.50;;
53875;SDS011;39789;53.216;5.624;2023-06-14T14:07:05;6.30;;;2.88;;
53875;SDS011;39789;53.216;5.624;2023-06-14T14:09:32;7.90;;;3.08;;
53875;SDS011;39789;53.216;5.624;2023-06-14T14:11:59;4.57;;;3.05;;
53875;SDS011;39789;53.216;5.624;2023-06-14T14:14:27;9.75;;;3.50;;
53875;SDS011;39789;53.216;5.624;2023-06-14T14:16:53;13.85;;;3.65;;
53875;SDS011;39789;53.216;5.624;2023-06-14T14:19:19;8.93;;;3.10;;
53875;SDS011;39789;53.216;5.624;2023-06-14T14:21:46;11.57;;;2.97;;
53875;SDS011;39789;53.216;5.624;2023-06-14T14:24:11;7.53;;;3.20;;
53875;SDS011;39789;53.216;5.624;2023-06-14T14:26:37;8.50;;;3.05;;
53875;SDS011;39789;53.216;5.624;2023-06-14T14:29:03;21.17;;;4.18;;
53875;SDS011;39789;53.216;5.624;2023-06-14T14:31:28;7.22;;;2.95;;
53875;SDS011;39789;53.216;5.624;2023-06-14T14:33:55;7.97;;;3.28;;
53875;SDS011;39789;53.216;5.624;2023-06-14T14:36:20;16.20;;;3.60;;
53875;SDS011;39789;53.216;5.624;2023-06-14T14:38:46;7.65;;;3.35;;
53875;SDS011;39789;53.216;5.624;2023-06-14T14:41:12;21.65;;;3.50;;
53875;SDS011;39789;53.216;5.624;2023-06-14T14:43:38;8.75;;;3.28;;
53875;SDS011;39789;53.216;5.624;2023-06-14T14:46:03;5.35;;;2.80;;
53875;SDS011;39789;53.216;5.624;2023-06-14T14:48:29;7.53;;;3.10;;
53875;SDS011;39789;53.216;5.624;2023-06-14T14:50:55;5.72;;;3.08;;
53875;SDS011;39789;53.216;5.624;2023-06-14T14:53:20;4.43;;;2.70;;
53875;SDS011;39789;53.216;5.624;2023-06-14T14:55:46;11.30;;;3.33;;
53875;SDS011;39789;53.216;5.624;2023-06-14T14:58:12;4.93;;;2.85;;
53875;SDS011;39789;53.216;5.624;2023-06-14T15:00:38;10.48;;;2.97;;
53875;SDS011;39789;53.216;5.624;2023-06-14T15:03:04;4.65;;;2.80;;